Time;durP1;ratioP1;P1;durP2;ratioP2;P2;SDS_P1;SDS_P2;PMS_P1;PMS_P2;Temp;Humidity;BMP_temperature;BMP_pressure;BME280_temperature;BME280_humidity;BME280_pressure;Samples;Min_cycle;Max_cycle;Signal;HPM_P1;HPM_P2
2021/04/02 00:00:57;;;;;;;1.67;0.98;;;18.00;36.40;;;;;;5029127;28;20210;-78
2021/04/02 00:03:24;;;;;;;1.92;0.75;;;18.00;36.40;;;;;;5010844;28;20179;-78
2021/04/02 00:05:53;;;;;;;0.85;0.60;;;18.00;36.40;;;;;;5010770;28;20733;-79
2021/04/02 00:08:28;;;;;;;0.82;0.73;;;18.00;36.50;;;;;;5028473;28;20187;-79
2021/04/02 00:11:20;;;;;;;1.00;0.85;;;18.00;36.40;;;;;;5027957;28;20155;-78
2021/04/02 00:13:50;;;;;;;0.60;0.60;;;18.00;36.50;;;;;;5012371;28;20218;-78
2021/04/02 00:16:18;;;;;;;1.08;0.90;;;18.00;37.20;;;;;;5010750;28;20166;-78
2021/04/02 00:18:45;;;;;;;1.15;0.70;;;18.00;36.80;;;;;;5026351;28;20175;-79
2021/04/02 00:21:15;;;;;;;0.95;0.88;;;18.00;36.60;;;;;;5008055;28;20202;-79
2021/04/02 00:23:47;;;;;;;0.70;0.70;;;18.00;36.60;;;;;;5007335;28;20179;-79
2021/04/02 00:26:17;;;;;;;1.40;0.85;;;18.00;36.60;;;;;;5025564;28;20163;-79
2021/04/02 00:28:51;;;;;;;1.35;0.98;;;18.00;36.60;;;;;;4991911;28;20265;-79
2021/04/02 00:31:26;;;;;;;0.80;0.80;;;18.00;36.70;;;;;;5008304;28;20154;-79
2021/04/02 00:33:52;;;;;;;0.57;0.52;;;18.00;36.80;;;;;;5025405;28;20262;-78
2021/04/02 00:36:19;;;;;;;0.70;0.63;;;18.00;36.80;;;;;;5007548;28;20159;-79
2021/04/02 00:38:45;;;;;;;1.73;0.75;;;18.00;36.70;;;;;;5025628;28;20211;-79
2021/04/02 00:41:16;;;;;;;0.98;0.88;;;18.00;36.80;;;;;;5024945;28;20167;-79
2021/04/02 00:43:44;;;;;;;0.60;0.60;;;18.00;36.80;;;;;;5024578;28;20230;-79
2021/04/02 00:46:11;;;;;;;0.85;0.85;;;18.00;36.70;;;;;;5024676;28;20155;-79
2021/04/02 00:48:39;;;;;;;0.82;0.82;;;18.00;36.80;;;;;;5007906;28;20195;-79
2021/04/02 00:51:11;;;;;;;0.88;0.65;;;18.00;36.90;;;;;;5025071;28;20179;-78
2021/04/02 00:53:47;;;;;;;1.92;0.88;;;18.00;36.80;;;;;;5007686;28;20151;-78
2021/04/02 00:56:14;;;;;;;2.35;0.70;;;17.90;36.80;;;;;;5006924;28;20185;-79
2021/04/02 00:58:41;;;;;;;1.52;0.80;;;17.90;36.80;;;;;;5025079;28;20195;-79
2021/04/02 01:01:08;;;;;;;0.65;0.65;;;17.90;36.80;;;;;;5007463;28;20223;-79
2021/04/02 01:03:38;;;;;;;1.05;0.65;;;17.90;36.80;;;;;;5008468;28;20242;-78
2021/04/02 01:06:09;;;;;;;0.88;0.70;;;17.90;36.80;;;;;;5008528;28;20164;-79
2021/04/02 01:08:36;;;;;;;0.93;0.68;;;17.90;36.90;;;;;;5007821;28;20214;-78
2021/04/02 01:11:10;;;;;;;0.90;0.70;;;17.90;36.90;;;;;;5025741;28;20210;-78
2021/04/02 01:13:44;;;;;;;0.80;0.80;;;17.90;37.00;;;;;;5025879;28;20214;-79
2021/04/02 01:16:15;;;;;;;0.98;0.80;;;17.90;37.00;;;;;;5025789;28;20159;-79
2021/04/02 01:19:08;;;;;;;0.70;0.60;;;17.90;37.00;;;;;;5026210;28;20164;-79
2021/04/02 01:21:53;;;;;;;1.00;0.80;;;17.90;37.00;;;;;;5025819;28;20159;-79
2021/04/02 01:24:23;;;;;;;2.08;0.80;;;17.90;37.00;;;;;;4993787;28;20159;-79
2021/04/02 01:26:54;;;;;;;0.90;0.70;;;17.90;37.10;;;;;;5025050;28;20151;-79
2021/04/02 01:29:25;;;;;;;0.85;0.73;;;17.90;37.00;;;;;;5024987;28;20198;-78
2021/04/02 01:31:54;;;;;;;2.22;0.70;;;17.90;37.00;;;;;;5025398;28;20156;-78
2021/04/02 01:34:47;;;;;;;1.08;0.90;;;17.90;37.10;;;;;;5025496;28;20160;-79
2021/04/02 01:37:44;;;;;;;0.77;0.75;;;17.90;37.20;;;;;;5006306;28;20159;-78
2021/04/02 01:40:14;;;;;;;0.70;0.70;;;17.90;37.10;;;;;;5025764;28;20677;-78
2021/04/02 01:42:42;;;;;;;0.82;0.73;;;17.90;37.10;;;;;;5025192;28;20673;-78
2021/04/02 01:45:14;;;;;;;0.68;0.60;;;17.80;37.30;;;;;;5007849;28;20154;-78
2021/04/02 01:47:40;;;;;;;1.00;0.80;;;17.80;37.20;;;;;;5008543;28;20190;-78
2021/04/02 01:50:10;;;;;;;1.00;0.70;;;17.90;37.20;;;;;;5007343;28;20156;-78
2021/04/02 01:52:37;;;;;;;0.73;0.60;;;17.80;37.20;;;;;;5025998;28;20150;-78
2021/04/02 01:55:13;;;;;;;1.13;0.82;;;17.80;37.20;;;;;;5008046;28;20185;-78
2021/04/02 01:57:39;;;;;;;0.80;0.80;;;17.80;37.30;;;;;;5024063;28;20163;-78
2021/04/02 02:00:21;;;;;;;0.73;0.60;;;17.80;37.40;;;;;;5008005;28;20163;-78
2021/04/02 02:02:48;;;;;;;1.38;0.85;;;17.80;37.30;;;;;;5025298;28;20219;-78
2021/04/02 02:05:23;;;;;;;0.70;0.70;;;17.80;37.30;;;;;;5007107;28;20172;-78
2021/04/02 02:07:55;;;;;;;1.67;0.63;;;17.80;37.40;;;;;;5007771;28;20187;-78
2021/04/02 02:10:23;;;;;;;0.77;0.77;;;17.80;37.30;;;;;;5025161;28;20156;-79
2021/04/02 02:12:50;;;;;;;0.80;0.70;;;17.80;37.40;;;;;;5025429;28;20155;-78
2021/04/02 02:15:17;;;;;;;1.35;0.85;;;17.80;37.30;;;;;;5007899;28;20152;-78
2021/04/02 02:17:49;;;;;;;1.27;0.80;;;17.80;37.50;;;;;;5008090;28;20191;-78
2021/04/02 02:20:16;;;;;;;1.73;0.75;;;17.80;37.40;;;;;;5008275;28;20156;-78
2021/04/02 02:22:46;;;;;;;1.27;0.90;;;17.80;37.40;;;;;;5007353;28;20210;-78
2021/04/02 02:25:22;;;;;;;2.25;0.70;;;17.90;37.40;;;;;;5025610;28;20243;-78
2021/04/02 02:27:47;;;;;;;1.83;0.60;;;17.80;37.50;;;;;;5025494;28;20211;-78
2021/04/02 02:30:18;;;;;;;0.65;0.57;;;17.80;37.50;;;;;;5007331;28;20164;-78
2021/04/02 02:32:46;;;;;;;1.33;0.77;;;17.80;37.50;;;;;;5007138;28;20156;-78
2021/04/02 02:35:21;;;;;;;0.70;0.70;;;17.80;37.60;;;;;;5008034;28;20296;-78
2021/04/02 02:37:48;;;;;;;1.08;0.85;;;17.80;37.50;;;;;;5007404;28;20170;-78
2021/04/02 02:40:16;;;;;;;2.15;0.60;;;17.80;37.50;;;;;;5007176;28;20160;-78
2021/04/02 02:42:43;;;;;;;0.80;0.80;;;17.80;37.60;;;;;;5007228;28;20662;-78
2021/04/02 02:45:11;;;;;;;0.70;0.70;;;17.80;37.50;;;;;;5007829;28;20188;-78
2021/04/02 02:47:40;;;;;;;1.15;0.60;;;17.80;37.60;;;;;;5024448;28;20202;-78
2021/04/02 02:50:08;;;;;;;1.45;0.65;;;17.80;37.60;;;;;;5007037;28;20156;-78
2021/04/02 02:52:35;;;;;;;1.52;0.70;;;17.80;37.60;;;;;;5007440;28;20159;-78
2021/04/02 02:55:02;;;;;;;0.50;0.50;;;17.80;37.70;;;;;;5007400;28;20183;-78
2021/04/02 02:57:33;;;;;;;2.28;0.60;;;17.80;37.70;;;;;;5025505;28;20166;-78
2021/04/02 02:59:59;;;;;;;0.57;0.50;;;17.80;37.70;;;;;;5025263;28;20152;-79
2021/04/02 03:02:26;;;;;;;0.95;0.60;;;17.80;37.70;;;;;;5007061;28;20227;-78
2021/04/02 03:05:01;;;;;;;0.88;0.63;;;17.80;37.80;;;;;;4992020;28;20191;-78
2021/04/02 03:07:27;;;;;;;0.60;0.60;;;17.80;37.80;;;;;;5008055;28;20528;-78
2021/04/02 03:09:54;;;;;;;0.63;0.63;;;17.70;37.80;;;;;;5011356;28;20243;-78
2021/04/02 03:12:21;;;;;;;0.70;0.70;;;17.70;37.70;;;;;;5011104;28;20567;-78
2021/04/02 03:14:48;;;;;;;0.60;0.60;;;17.70;37.80;;;;;;5011378;28;20159;-78
2021/04/02 03:17:15;;;;;;;0.73;0.70;;;17.70;37.90;;;;;;5010581;28;20156;-78
2021/04/02 03:19:50;;;;;;;1.33;0.70;;;17.70;37.90;;;;;;5028215;28;20160;-78
2021/04/02 03:22:16;;;;;;;0.60;0.60;;;17.70;37.90;;;;;;5011095;28;20155;-78
2021/04/02 03:24:50;;;;;;;0.63;0.55;;;17.70;37.90;;;;;;5027681;28;20166;-78
2021/04/02 03:27:16;;;;;;;1.42;0.60;;;17.70;37.90;;;;;;5027851;28;20158;-78
2021/04/02 03:29:43;;;;;;;0.63;0.60;;;17.70;38.00;;;;;;4994056;28;20152;-78
2021/04/02 03:32:18;;;;;;;0.82;0.70;;;17.70;38.00;;;;;;5028392;28;20155;-78
2021/04/02 03:34:45;;;;;;;1.38;0.80;;;17.70;38.00;;;;;;5010968;28;20159;-78
2021/04/02 03:37:14;;;;;;;0.90;0.73;;;17.70;37.90;;;;;;4994075;28;20231;-78
2021/04/02 03:39:41;;;;;;;0.68;0.60;;;17.70;38.00;;;;;;5010570;28;20210;-78
2021/04/02 03:42:18;;;;;;;1.05;0.68;;;17.70;38.00;;;;;;5010474;28;20168;-78
2021/04/02 03:44:44;;;;;;;0.93;0.70;;;17.70;38.00;;;;;;5010765;28;20541;-78
2021/04/02 03:47:16;;;;;;;1.38;0.70;;;17.70;38.00;;;;;;5027486;28;20171;-78
2021/04/02 03:49:44;;;;;;;0.73;0.73;;;17.70;38.10;;;;;;5027674;28;20183;-78
2021/04/02 03:52:24;;;;;;;0.70;0.70;;;17.70;38.00;;;;;;5010435;28;20159;-78
2021/04/02 03:54:59;;;;;;;0.60;0.60;;;17.70;38.00;;;;;;5028542;28;20159;-78
2021/04/02 03:57:28;;;;;;;0.77;0.68;;;17.70;38.00;;;;;;5010136;28;20155;-78
2021/04/02 03:59:56;;;;;;;0.70;0.70;;;17.70;38.00;;;;;;5010285;28;20148;-78
2021/04/02 04:02:22;;;;;;;0.98;0.70;;;17.70;38.10;;;;;;5027813;28;20218;-78
2021/04/02 04:04:48;;;;;;;0.50;0.50;;;17.70;38.00;;;;;;4994073;28;20246;-78
2021/04/02 04:07:15;;;;;;;1.10;0.65;;;17.70;38.00;;;;;;5010449;28;20167;-78
2021/04/02 04:09:41;;;;;;;0.63;0.57;;;17.80;38.00;;;;;;5027602;28;20167;-78
2021/04/02 04:12:10;;;;;;;0.88;0.70;;;17.80;37.90;;;;;;4993605;28;20190;-78
2021/04/02 04:14:38;;;;;;;0.60;0.50;;;17.80;37.80;;;;;;5027680;28;20152;-78
2021/04/02 04:17:05;;;;;;;0.70;0.70;;;17.90;37.60;;;;;;5010723;28;20156;-78
2021/04/02 04:19:32;;;;;;;0.70;0.60;;;18.00;37.50;;;;;;5009506;28;20160;-78
2021/04/02 04:21:58;;;;;;;0.60;0.60;;;17.90;37.60;;;;;;4993901;28;20171;-78
2021/04/02 04:24:25;;;;;;;0.88;0.50;;;17.90;37.50;;;;;;4993643;28;20650;-78
2021/04/02 04:26:54;;;;;;;1.55;0.57;;;18.00;37.50;;;;;;5027217;28;20160;-79
2021/04/02 04:29:33;;;;;;;0.93;0.73;;;18.00;37.50;;;;;;5009655;28;20187;-78
2021/04/02 04:32:00;;;;;;;0.90;0.70;;;17.90;37.50;;;;;;5009436;28;20162;-78
2021/04/02 04:34:27;;;;;;;0.70;0.60;;;18.00;37.50;;;;;;5027068;28;20159;-79
2021/04/02 04:36:54;;;;;;;0.88;0.60;;;18.00;37.50;;;;;;5027435;28;20211;-78
2021/04/02 04:39:22;;;;;;;1.88;0.45;;;17.90;37.50;;;;;;5009469;28;20193;-78
2021/04/02 04:41:52;;;;;;;0.50;0.50;;;17.90;37.60;;;;;;5009815;28;20191;-78
2021/04/02 04:44:20;;;;;;;0.73;0.50;;;17.90;37.60;;;;;;5010302;28;20168;-78
2021/04/02 04:46:48;;;;;;;0.50;0.50;;;17.90;37.60;;;;;;5021591;28;20197;-78
2021/04/02 04:49:18;;;;;;;1.02;0.70;;;17.90;37.60;;;;;;5046698;28;20190;-78
2021/04/02 04:51:48;;;;;;;0.98;0.70;;;17.90;37.50;;;;;;5047390;28;20245;-78
2021/04/02 04:54:23;;;;;;;0.50;0.50;;;18.00;37.50;;;;;;5012936;28;20202;-78
2021/04/02 04:56:50;;;;;;;0.80;0.55;;;17.90;37.50;;;;;;5029322;28;20170;-78
2021/04/02 04:59:16;;;;;;;0.82;0.52;;;17.90;37.50;;;;;;5040334;28;20162;-78
2021/04/02 05:01:44;;;;;;;0.70;0.70;;;18.00;37.40;;;;;;5028701;28;20218;-78
2021/04/02 05:04:11;;;;;;;0.47;0.40;;;18.00;37.20;;;;;;5012159;28;20166;-78
2021/04/02 05:06:39;;;;;;;0.60;0.60;;;18.00;37.30;;;;;;5002484;28;20176;-79
2021/04/02 05:09:05;;;;;;;0.57;0.57;;;18.10;37.20;;;;;;5012153;28;20191;-79
2021/04/02 05:11:33;;;;;;;0.98;0.40;;;18.10;37.20;;;;;;5012884;28;20162;-79
2021/04/02 05:13:59;;;;;;;0.77;0.52;;;18.10;37.00;;;;;;5012221;28;20164;-78
2021/04/02 05:16:25;;;;;;;0.50;0.50;;;18.10;37.00;;;;;;5026429;28;20257;-79
2021/04/02 05:18:52;;;;;;;0.80;0.50;;;18.10;37.00;;;;;;5018779;28;20163;-78
2021/04/02 05:21:20;;;;;;;1.30;0.63;;;18.10;36.90;;;;;;5029339;28;20159;-79
2021/04/02 05:23:47;;;;;;;0.50;0.50;;;18.20;37.00;;;;;;5043516;28;20167;-79
2021/04/02 05:26:14;;;;;;;0.75;0.50;;;18.10;37.50;;;;;;5026229;28;20156;-79
2021/04/02 05:28:40;;;;;;;0.52;0.50;;;18.10;37.00;;;;;;5026413;28;20198;-79
2021/04/02 05:31:06;;;;;;;0.77;0.50;;;18.10;37.10;;;;;;5008211;28;20209;-79
2021/04/02 05:33:34;;;;;;;0.60;0.50;;;18.10;36.90;;;;;;5007670;28;20156;-79
2021/04/02 05:36:02;;;;;;;0.70;0.50;;;18.10;37.00;;;;;;5024883;28;20581;-79
2021/04/02 05:38:28;;;;;;;1.88;0.57;;;18.10;37.00;;;;;;5009365;28;20226;-79
2021/04/02 05:40:54;;;;;;;0.40;0.40;;;18.10;37.00;;;;;;5025222;28;20630;-79
2021/04/02 05:44:01;;;;;;;0.85;0.43;;;18.10;37.00;;;;;;5007638;28;20191;-79
2021/04/02 05:46:32;;;;;;;0.50;0.50;;;18.10;37.00;;;;;;4948817;29;20264;-79
2021/04/02 05:49:03;;;;;;;0.70;0.50;;;18.10;37.00;;;;;;4948650;29;20209;-79
2021/04/02 05:51:30;;;;;;;0.50;0.50;;;18.10;36.90;;;;;;4933186;29;20644;-79
2021/04/02 05:53:56;;;;;;;0.52;0.52;;;18.10;36.90;;;;;;4933051;29;20166;-79
2021/04/02 05:56:23;;;;;;;0.60;0.40;;;18.00;36.90;;;;;;4948206;29;20244;-79
2021/04/02 05:58:56;;;;;;;0.40;0.40;;;18.10;36.90;;;;;;4964733;29;20165;-79
2021/04/02 06:01:22;;;;;;;0.73;0.47;;;18.10;36.80;;;;;;4955805;28;20282;-80
2021/04/02 06:03:49;;;;;;;0.50;0.50;;;18.10;36.80;;;;;;4968438;28;20255;-79
2021/04/02 06:06:15;;;;;;;0.43;0.43;;;18.00;36.90;;;;;;4967614;28;20176;-78
2021/04/02 06:08:44;;;;;;;0.73;0.60;;;18.10;36.80;;;;;;4984378;28;20224;-79
2021/04/02 06:11:10;;;;;;;0.50;0.50;;;18.10;36.90;;;;;;4967870;28;20175;-78
2021/04/02 06:13:43;;;;;;;1.02;0.50;;;18.10;36.90;;;;;;4968180;28;20688;-78
2021/04/02 06:16:09;;;;;;;0.43;0.43;;;18.10;36.90;;;;;;5000069;28;20252;-79
2021/04/02 06:18:41;;;;;;;0.68;0.60;;;18.10;36.70;;;;;;5003847;28;20160;-78
2021/04/02 06:21:07;;;;;;;1.58;0.40;;;18.10;36.80;;;;;;4970877;28;20223;-78
2021/04/02 06:23:36;;;;;;;0.70;0.52;;;18.10;36.90;;;;;;5039698;28;20179;-78
2021/04/02 06:26:06;;;;;;;0.73;0.60;;;18.10;36.90;;;;;;5044678;28;20162;-78
2021/04/02 06:28:41;;;;;;;0.73;0.50;;;18.10;36.80;;;;;;5026900;28;20233;-78
2021/04/02 06:31:13;;;;;;;0.57;0.50;;;18.00;36.80;;;;;;5024123;28;20173;-79
2021/04/02 06:33:53;;;;;;;0.40;0.40;;;18.10;36.80;;;;;;5043712;28;20266;-78
2021/04/02 06:36:29;;;;;;;0.40;0.40;;;18.10;36.80;;;;;;5045266;28;20162;-78
2021/04/02 06:39:05;;;;;;;0.70;0.40;;;18.10;36.80;;;;;;5044865;28;20170;-79
2021/04/02 06:41:34;;;;;;;0.65;0.60;;;18.10;36.80;;;;;;5043696;28;20212;-78
2021/04/02 06:44:06;;;;;;;0.88;0.50;;;18.00;36.90;;;;;;5031638;28;20183;-78
2021/04/02 06:46:34;;;;;;;0.50;0.50;;;18.10;36.70;;;;;;5031688;28;20170;-78
2021/04/02 06:49:13;;;;;;;0.40;0.40;;;18.10;36.70;;;;;;5031129;28;20189;-78
2021/04/02 06:51:40;;;;;;;0.60;0.57;;;18.10;36.70;;;;;;5031536;28;20151;-78
2021/04/02 06:54:13;;;;;;;1.10;0.32;;;18.00;36.70;;;;;;5027849;28;20159;-78
2021/04/02 06:56:42;;;;;;;0.65;0.60;;;18.00;36.70;;;;;;5013623;28;20156;-79
2021/04/02 06:59:20;;;;;;;0.45;0.45;;;18.00;36.90;;;;;;5030714;28;20163;-79
2021/04/02 07:01:48;;;;;;;0.60;0.60;;;18.00;36.70;;;;;;5039291;28;20225;-79
2021/04/02 07:04:31;;;;;;;0.70;0.50;;;18.00;36.70;;;;;;5051136;28;20185;-79
2021/04/02 07:06:57;;;;;;;0.47;0.47;;;18.00;36.80;;;;;;5033789;28;20596;-78
2021/04/02 07:09:24;;;;;;;0.75;0.50;;;18.10;36.70;;;;;;5050038;28;20209;-79
2021/04/02 07:12:01;;;;;;;0.65;0.50;;;18.10;36.70;;;;;;5049958;28;20158;-79
2021/04/02 07:14:32;;;;;;;0.35;0.35;;;18.10;36.60;;;;;;5050076;28;20617;-79
2021/04/02 07:17:07;;;;;;;0.47;0.47;;;18.00;36.70;;;;;;5049918;28;20154;-79
2021/04/02 07:19:34;;;;;;;0.60;0.50;;;18.00;36.70;;;;;;5068647;28;20158;-79
2021/04/02 07:22:01;;;;;;;0.38;0.38;;;18.00;36.60;;;;;;5034447;28;20181;-79
2021/04/02 07:24:36;;;;;;;0.40;0.40;;;18.00;36.70;;;;;;5067879;28;20157;-79
2021/04/02 07:27:02;;;;;;;0.40;0.40;;;18.00;36.70;;;;;;5051622;28;20208;-79
2021/04/02 07:29:29;;;;;;;0.40;0.40;;;18.10;36.60;;;;;;5050877;28;20194;-79
2021/04/02 07:31:56;;;;;;;0.50;0.50;;;18.10;36.50;;;;;;5067743;28;20162;-79
2021/04/02 07:34:22;;;;;;;1.20;0.60;;;18.10;36.50;;;;;;5050822;28;20176;-80
2021/04/02 07:36:48;;;;;;;0.45;0.45;;;18.00;36.50;;;;;;5050418;28;20205;-80
2021/04/02 07:39:20;;;;;;;2.00;0.50;;;18.10;36.40;;;;;;5051595;28;20176;-80
2021/04/02 07:41:56;;;;;;;0.88;0.50;;;18.20;36.40;;;;;;5050124;28;20178;-80
2021/04/02 07:44:24;;;;;;;0.60;0.60;;;18.20;36.20;;;;;;5051221;28;20181;-79
2021/04/02 07:47:10;;;;;;;0.70;0.68;;;18.20;36.20;;;;;;5068308;28;20158;-79
2021/04/02 07:49:49;;;;;;;0.50;0.50;;;18.20;36.30;;;;;;5068769;28;20190;-79
2021/04/02 07:52:39;;;;;;;0.40;0.40;;;18.10;36.30;;;;;;5067588;28;20168;-79
2021/04/02 07:55:09;;;;;;;0.77;0.52;;;18.20;36.40;;;;;;5066200;28;20158;-79
2021/04/02 07:58:14;;;;;;;1.38;0.65;;;18.10;36.30;;;;;;5049781;28;20169;-79
2021/04/02 08:00:41;;;;;;;0.50;0.50;;;18.10;36.30;;;;;;5061394;28;20162;-79
2021/04/02 08:03:07;;;;;;;1.55;0.50;;;18.20;36.20;;;;;;5045926;28;20205;-79
2021/04/02 08:05:34;;;;;;;3.03;0.40;;;18.10;36.30;;;;;;5054434;28;20193;-78
2021/04/02 08:08:16;;;;;;;2.83;0.88;;;18.10;36.30;;;;;;5048792;28;20220;-78
2021/04/02 08:11:25;;;;;;;5.82;0.65;;;18.20;36.00;;;;;;5067020;28;20173;-79
2021/04/02 08:14:09;;;;;;;7.35;0.77;;;18.20;36.10;;;;;;4951758;29;20177;-79
2021/04/02 08:16:55;;;;;;;6.20;0.73;;;18.10;36.10;;;;;;4966823;29;20225;-79
2021/04/02 08:19:48;;;;;;;2.97;0.80;;;18.20;36.00;;;;;;4967887;29;20165;-79
2021/04/02 08:22:21;;;;;;;10.80;1.10;;;18.20;35.90;;;;;;4965128;29;20747;-79
2021/04/02 08:24:57;;;;;;;7.72;0.80;;;18.20;36.00;;;;;;4951654;29;20169;-79
2021/04/02 08:27:32;;;;;;;11.65;0.80;;;18.20;35.80;;;;;;4935190;29;20248;-79
2021/04/02 08:30:05;;;;;;;7.68;0.90;;;18.30;35.70;;;;;;4952122;29;20732;-78
2021/04/02 08:32:45;;;;;;;18.80;1.50;;;18.30;35.60;;;;;;4966801;29;20676;-79
2021/04/02 08:35:20;;;;;;;5.30;0.75;;;18.30;35.70;;;;;;4966658;29;20181;-79
2021/04/02 08:38:04;;;;;;;10.25;0.80;;;18.30;35.60;;;;;;4950252;29;20169;-79
2021/04/02 08:40:32;;;;;;;8.95;0.80;;;18.30;35.60;;;;;;4966625;29;20204;-79
2021/04/02 08:43:22;;;;;;;16.13;1.20;;;18.30;35.50;;;;;;4966527;29;20166;-79
2021/04/02 08:45:48;;;;;;;4.95;0.70;;;18.40;35.30;;;;;;4949089;29;20705;-79
2021/04/02 08:48:22;;;;;;;8.88;1.10;;;18.40;35.20;;;;;;5040224;28;20214;-79
2021/04/02 08:50:49;;;;;;;6.93;1.10;;;18.50;35.20;;;;;;5066803;28;20154;-79
2021/04/02 08:53:16;;;;;;;14.10;1.60;;;18.40;35.30;;;;;;5031743;28;20208;-79
2021/04/02 08:55:46;;;;;;;29.83;1.70;;;18.30;35.50;;;;;;5048420;28;20151;-78
2021/04/02 08:58:21;;;;;;;16.33;1.23;;;18.30;35.50;;;;;;5066291;28;20628;-79
2021/04/02 09:00:48;;;;;;;35.55;2.20;;;18.40;35.50;;;;;;5048275;28;20212;-78
2021/04/02 09:03:23;;;;;;;24.73;1.63;;;18.40;35.50;;;;;;5047201;28;20173;-78
2021/04/02 09:05:49;;;;;;;14.18;1.33;;;18.30;35.50;;;;;;5047547;28;20477;-79
2021/04/02 09:08:19;;;;;;;13.25;1.15;;;18.30;35.40;;;;;;5065447;28;20186;-79
2021/04/02 09:10:45;;;;;;;20.15;1.30;;;18.40;35.40;;;;;;5065212;28;20146;-79
2021/04/02 09:13:12;;;;;;;13.15;1.33;;;18.40;35.30;;;;;;5065185;28;20158;-79
2021/04/02 09:15:39;;;;;;;13.90;1.30;;;18.40;35.30;;;;;;5046356;28;20150;-79
2021/04/02 09:18:28;;;;;;;12.38;0.93;;;18.40;35.30;;;;;;5064451;28;20158;-79
2021/04/02 09:20:56;;;;;;;8.93;1.20;;;18.40;35.30;;;;;;5048018;28;20169;-79
2021/04/02 09:23:31;;;;;;;8.05;0.90;;;18.40;35.30;;;;;;5045976;28;20162;-78
2021/04/02 09:25:59;;;;;;;11.65;1.38;;;18.40;35.20;;;;;;5045485;28;20158;-79
2021/04/02 09:28:26;;;;;;;8.70;1.20;;;18.40;35.00;;;;;;5063707;28;20185;-79
2021/04/02 09:31:12;;;;;;;7.45;1.00;;;18.50;35.00;;;;;;5044762;28;20624;-78
2021/04/02 09:33:54;;;;;;;6.75;1.10;;;18.50;34.80;;;;;;5063224;28;20186;-79
2021/04/02 09:36:23;;;;;;;13.00;1.25;;;18.40;34.90;;;;;;5062684;28;20146;-79
2021/04/02 09:39:06;;;;;;;9.98;1.27;;;18.40;34.90;;;;;;5063948;28;20208;-79
2021/04/02 09:41:33;;;;;;;9.35;1.00;;;18.50;35.00;;;;;;5063661;28;20608;-79
2021/04/02 09:44:27;;;;;;;7.50;1.20;;;18.50;34.80;;;;;;5063578;28;20166;-79
2021/04/02 09:47:01;;;;;;;13.25;1.55;;;18.50;34.80;;;;;;5064090;28;20182;-79
2021/04/02 09:49:27;;;;;;;8.30;1.05;;;18.50;34.80;;;;;;5064463;28;20180;-79
2021/04/02 09:52:03;;;;;;;8.80;0.88;;;18.50;34.80;;;;;;5046433;28;20166;-79
2021/04/02 09:54:37;;;;;;;10.57;1.35;;;18.40;34.80;;;;;;5064558;28;20182;-79
2021/04/02 09:57:23;;;;;;;9.38;1.30;;;18.50;34.80;;;;;;5030687;28;20280;-80
2021/04/02 09:59:51;;;;;;;9.85;1.30;;;18.40;34.70;;;;;;5061547;28;20162;-79
2021/04/02 10:02:16;;;;;;;8.15;1.23;;;18.40;34.70;;;;;;5063175;28;20251;-79
2021/04/02 10:04:51;;;;;;;11.70;1.27;;;18.40;34.90;;;;;;5046149;28;20181;-79
2021/04/02 10:07:22;;;;;;;16.25;1.58;;;18.30;34.80;;;;;;5063544;28;20229;-79
2021/04/02 10:09:50;;;;;;;5.45;1.00;;;18.40;34.80;;;;;;5064356;28;20193;-79
2021/04/02 10:12:18;;;;;;;7.22;1.10;;;18.40;34.70;;;;;;5064308;28;20154;-78
2021/04/02 10:14:44;;;;;;;12.30;1.33;;;18.50;34.60;;;;;;5037303;28;20162;-80
2021/04/02 10:17:11;;;;;;;12.68;1.27;;;18.50;34.40;;;;;;5012412;28;20178;-79
2021/04/02 10:19:37;;;;;;;13.80;1.30;;;18.50;34.40;;;;;;5032003;28;20492;-80
2021/04/02 10:22:04;;;;;;;8.18;0.98;;;18.50;34.40;;;;;;5029568;28;20177;-79
2021/04/02 10:24:29;;;;;;;12.40;1.30;;;18.50;34.40;;;;;;5009981;28;20515;-78
2021/04/02 10:26:58;;;;;;;6.18;1.33;;;18.50;34.40;;;;;;5050917;28;20188;-80
2021/04/02 10:29:24;;;;;;;6.53;1.15;;;18.50;34.40;;;;;;5051718;28;20197;-79
2021/04/02 10:31:51;;;;;;;10.57;1.42;;;18.50;34.40;;;;;;5062789;28;20239;-78
2021/04/02 10:34:16;;;;;;;9.43;1.10;;;18.50;34.20;;;;;;5047542;28;20520;-79
2021/04/02 10:36:43;;;;;;;12.18;1.35;;;18.50;34.30;;;;;;5028753;28;20167;-78
2021/04/02 10:39:11;;;;;;;10.32;1.75;;;18.50;34.30;;;;;;5013908;28;20170;-78
2021/04/02 10:41:37;;;;;;;6.90;1.30;;;18.40;34.40;;;;;;5035698;28;20627;-78
2021/04/02 10:44:03;;;;;;;8.88;1.35;;;18.40;34.50;;;;;;5021332;28;20179;-78
2021/04/02 10:46:30;;;;;;;7.20;1.33;;;18.40;34.40;;;;;;5029193;28;20170;-78
2021/04/02 10:48:58;;;;;;;15.23;1.30;;;18.40;34.40;;;;;;5047021;28;20194;-78
2021/04/02 10:51:25;;;;;;;8.40;1.23;;;18.50;34.30;;;;;;5046758;28;20201;-78
2021/04/02 10:53:57;;;;;;;4.07;1.00;;;18.50;34.20;;;;;;5046097;28;20162;-78
2021/04/02 10:56:23;;;;;;;7.63;0.90;;;18.40;34.30;;;;;;5047020;28;20143;-78
2021/04/02 10:58:49;;;;;;;9.43;1.30;;;18.40;34.30;;;;;;5044798;28;20178;-78
2021/04/02 11:01:15;;;;;;;10.70;1.20;;;18.40;34.30;;;;;;5030386;28;20328;-78
2021/04/02 11:03:41;;;;;;;12.73;1.23;;;18.40;34.40;;;;;;5061991;28;20250;-78
2021/04/02 11:06:07;;;;;;;21.17;1.77;;;18.40;34.30;;;;;;5048771;28;20169;-78
2021/04/02 11:08:33;;;;;;;16.08;1.92;;;18.40;34.30;;;;;;5043820;28;20603;-78
2021/04/02 11:10:59;;;;;;;10.07;1.40;;;18.40;34.20;;;;;;5026540;28;20166;-78
2021/04/02 11:13:24;;;;;;;13.18;1.98;;;18.50;34.20;;;;;;5044898;28;20159;-79
2021/04/02 11:15:50;;;;;;;11.93;1.33;;;18.50;34.10;;;;;;5025691;28;20494;-78
2021/04/02 11:18:16;;;;;;;16.73;1.70;;;18.50;34.10;;;;;;5025798;28;20189;-78
2021/04/02 11:20:42;;;;;;;38.70;2.72;;;18.50;34.20;;;;;;5053188;28;20171;-78
2021/04/02 11:23:08;;;;;;;20.98;2.65;;;18.50;34.20;;;;;;5015350;28;20574;-78
2021/04/02 11:25:33;;;;;;;37.13;2.72;;;18.50;34.40;;;;;;5007657;28;20163;-78
2021/04/02 11:28:00;;;;;;;24.02;2.33;;;18.40;34.30;;;;;;5062136;28;20198;-78
2021/04/02 11:30:26;;;;;;;24.27;2.20;;;18.40;34.30;;;;;;5047553;28;20208;-78
2021/04/02 11:32:51;;;;;;;21.83;2.30;;;18.40;34.20;;;;;;5048936;28;20241;-78
2021/04/02 11:35:17;;;;;;;25.65;2.20;;;18.50;34.30;;;;;;5047959;28;20142;-78
2021/04/02 11:37:43;;;;;;;23.02;2.50;;;18.50;34.30;;;;;;5055530;28;20159;-78
2021/04/02 11:40:10;;;;;;;23.20;2.88;;;18.50;34.20;;;;;;5028177;28;20239;-78
2021/04/02 11:42:37;;;;;;;13.95;1.85;;;18.50;34.20;;;;;;5048667;28;20692;-78
2021/04/02 11:45:04;;;;;;;16.50;1.63;;;18.50;34.10;;;;;;5027312;28;20209;-78
2021/04/02 11:47:29;;;;;;;18.95;2.30;;;18.50;34.10;;;;;;5044810;28;20192;-78
2021/04/02 11:49:59;;;;;;;12.30;1.55;;;18.60;34.10;;;;;;5044610;28;20242;-78
2021/04/02 11:52:24;;;;;;;18.70;2.20;;;18.50;34.10;;;;;;5012771;28;20570;-78
2021/04/02 11:54:51;;;;;;;12.63;1.90;;;18.50;34.20;;;;;;5026730;28;20175;-78
2021/04/02 11:57:17;;;;;;;15.93;2.10;;;18.50;34.10;;;;;;5044525;28;20224;-79
2021/04/02 11:59:43;;;;;;;16.95;1.67;;;18.50;34.10;;;;;;5025967;28;20159;-78
2021/04/02 12:02:08;;;;;;;13.57;1.58;;;18.50;34.10;;;;;;5025649;28;20218;-77
2021/04/02 12:04:35;;;;;;;15.93;1.83;;;18.50;34.00;;;;;;5044655;28;20174;-79
2021/04/02 12:07:01;;;;;;;12.85;1.35;;;18.50;34.10;;;;;;5043885;28;20246;-79
2021/04/02 12:09:27;;;;;;;10.23;1.50;;;18.50;34.10;;;;;;5046681;28;20250;-79
2021/04/02 12:11:53;;;;;;;10.02;1.05;;;18.50;34.10;;;;;;4990198;28;20182;-78
2021/04/02 12:14:22;;;;;;;14.45;1.40;;;18.50;34.00;;;;;;5030718;28;20171;-78
2021/04/02 12:16:49;;;;;;;16.63;1.95;;;18.50;34.10;;;;;;5043179;28;20569;-78
2021/04/02 12:19:15;;;;;;;16.90;1.55;;;18.50;34.10;;;;;;5042505;28;20630;-77
2021/04/02 12:21:44;;;;;;;9.43;1.05;;;18.50;34.00;;;;;;5044340;28;20170;-77
2021/04/02 12:24:09;;;;;;;7.90;1.20;;;18.50;34.10;;;;;;5025082;28;20174;-78
2021/04/02 12:26:35;;;;;;;14.57;1.40;;;18.50;34.10;;;;;;5047333;28;20166;-78
2021/04/02 12:29:01;;;;;;;15.77;1.40;;;18.50;33.90;;;;;;5063357;28;20178;-78
2021/04/02 12:31:27;;;;;;;11.27;1.23;;;18.50;33.90;;;;;;5064099;28;20535;-77
2021/04/02 12:33:53;;;;;;;9.18;1.88;;;18.50;34.00;;;;;;5029020;28;20221;-78
2021/04/02 12:36:19;;;;;;;9.60;1.50;;;18.50;34.00;;;;;;5063910;28;20165;-78
2021/04/02 12:38:46;;;;;;;3.95;0.85;;;18.50;33.90;;;;;;5063715;28;20158;-78
2021/04/02 12:41:11;;;;;;;12.70;1.80;;;18.50;33.90;;;;;;5044578;28;20162;-78
2021/04/02 12:43:38;;;;;;;13.82;1.23;;;18.50;33.90;;;;;;5045576;28;20238;-79
2021/04/02 12:46:04;;;;;;;10.45;1.88;;;18.50;34.10;;;;;;5063153;28;20162;-78
2021/04/02 12:48:32;;;;;;;9.13;1.23;;;18.40;34.10;;;;;;5044407;28;20186;-78
2021/04/02 12:50:58;;;;;;;8.80;1.20;;;18.50;34.10;;;;;;5061751;28;20605;-79
2021/04/02 12:53:24;;;;;;;8.85;1.05;;;18.40;34.00;;;;;;5062718;28;20245;-78
2021/04/02 12:55:51;;;;;;;9.38;1.20;;;18.50;34.10;;;;;;5044189;28;20197;-78
2021/04/02 12:58:20;;;;;;;6.40;1.20;;;18.50;34.00;;;;;;5047211;28;20321;-79
2021/04/02 13:00:46;;;;;;;7.45;1.23;;;18.50;34.10;;;;;;5033986;28;20182;-80